Time;durP1;ratioP1;P1;durP2;ratioP2;P2;SDS_P1;SDS_P2;PMS_P1;PMS_P2;Temp;Humidity;BMP_temperature;BMP_pressure;BME280_temperature;BME280_humidity;BME280_pressure;Samples;Min_cycle;Max_cycle;Signal;HPM_P1;HPM_P2
2021/10/18 00:01:21;;;;;;;35.53;17.50;;;;;;;9.59;73.27;97232.44;5070516;28;20179;-68
2021/10/18 00:03:46;;;;;;;36.17;17.80;;;;;;;9.39;74.52;97231.69;5061934;28;20186;-67
2021/10/18 00:06:12;;;;;;;34.63;17.90;;;;;;;9.51;74.17;97229.72;5065408;28;20218;-65
2021/10/18 00:08:38;;;;;;;34.30;16.20;;;;;;;9.48;74.20;97235.25;5057602;28;20187;-65
2021/10/18 00:11:05;;;;;;;39.00;18.43;;;;;;;9.29;74.08;97239.59;5078974;28;20190;-67
2021/10/18 00:13:31;;;;;;;43.53;19.80;;;;;;;9.51;74.36;97237.56;5061323;28;20420;-67
2021/10/18 00:15:57;;;;;;;41.77;18.33;;;;;;;9.37;74.56;97239.69;5074909;28;20444;-66
2021/10/18 00:18:23;;;;;;;56.43;18.50;;;;;;;9.09;76.12;97246.69;5066523;28;20425;-68
2021/10/18 00:20:48;;;;;;;48.43;19.93;;;;;;;9.26;75.28;97258.19;5073572;28;20458;-69
2021/10/18 00:23:14;;;;;;;56.53;21.47;;;;;;;9.34;75.16;97258.28;5066271;28;20181;-66
2021/10/18 00:25:40;;;;;;;45.30;20.67;;;;;;;9.42;75.17;97259.38;5065529;28;20213;-67
2021/10/18 00:28:05;;;;;;;48.13;20.60;;;;;;;9.32;75.19;97260.25;5072878;28;20190;-68
2021/10/18 00:30:31;;;;;;;49.23;22.00;;;;;;;9.41;74.92;97268.19;5074341;28;20347;-67
2021/10/18 00:32:57;;;;;;;68.83;22.10;;;;;;;9.41;74.77;97262.94;5082172;28;20183;-66
2021/10/18 00:35:23;;;;;;;48.83;22.83;;;;;;;9.56;74.79;97253.66;5075848;28;20868;-65
2021/10/18 00:37:48;;;;;;;51.20;22.20;;;;;;;9.53;74.67;97257.38;5063221;28;20654;-68
2021/10/18 00:40:14;;;;;;;46.60;22.00;;;;;;;9.28;75.51;97258.88;5073556;28;20186;-67
2021/10/18 00:42:41;;;;;;;44.07;21.10;;;;;;;9.41;75.13;97255.09;5066981;28;20194;-66
2021/10/18 00:45:07;;;;;;;58.03;22.17;;;;;;;9.46;75.46;97258.94;5063011;28;20252;-69
2021/10/18 00:47:33;;;;;;;48.07;21.63;;;;;;;9.37;75.40;97263.22;5073453;28;20429;-65
2021/10/18 00:49:59;;;;;;;50.17;21.23;;;;;;;9.46;75.66;97252.88;5055511;28;20424;-66
2021/10/18 00:52:25;;;;;;;59.00;22.20;;;;;;;9.32;75.98;97255.00;5065852;28;20456;-68
2021/10/18 00:54:51;;;;;;;57.50;21.87;;;;;;;9.71;74.48;97254.00;5065354;28;20210;-67
2021/10/18 00:57:17;;;;;;;56.10;21.70;;;;;;;9.62;74.95;97260.94;5073438;28;20206;-66
2021/10/18 00:59:43;;;;;;;52.23;21.13;;;;;;;9.65;74.84;97251.97;5072333;28;20796;-66
2021/10/18 01:02:09;;;;;;;56.60;21.80;;;;;;;9.63;74.79;97265.19;5072718;28;20225;-66
2021/10/18 01:04:35;;;;;;;58.90;22.40;;;;;;;9.55;75.18;97267.72;5072373;28;20809;-67
2021/10/18 01:07:00;;;;;;;51.33;21.80;;;;;;;9.56;74.92;97265.91;5071713;28;20207;-65
2021/10/18 01:09:26;;;;;;;52.23;21.10;;;;;;;9.68;75.23;97262.97;5049084;28;20416;-68
2021/10/18 01:11:51;;;;;;;55.80;21.50;;;;;;;9.68;75.08;97267.38;5075450;28;20642;-68
2021/10/18 01:14:17;;;;;;;54.13;22.10;;;;;;;9.75;74.67;97265.00;5075305;28;20191;-66
2021/10/18 01:16:42;;;;;;;60.57;22.13;;;;;;;9.72;74.20;97262.66;5067500;28;20187;-69
2021/10/18 01:19:12;;;;;;;61.53;24.77;;;;;;;9.62;74.52;97258.31;5071921;28;20186;-66
2021/10/18 01:21:39;;;;;;;57.57;22.33;;;;;;;9.88;74.12;97267.28;5066816;28;20183;-68
2021/10/18 01:24:05;;;;;;;57.47;22.23;;;;;;;9.86;74.46;97264.00;5063398;28;20448;-67
2021/10/18 01:26:30;;;;;;;60.90;22.33;;;;;;;9.80;73.88;97268.81;5071624;28;21001;-67
2021/10/18 01:28:56;;;;;;;57.83;22.80;;;;;;;9.96;73.56;97272.59;5071279;28;20182;-69
2021/10/18 01:31:22;;;;;;;56.67;22.97;;;;;;;10.08;73.45;97260.97;5072208;28;20183;-66
2021/10/18 01:33:48;;;;;;;52.03;22.60;;;;;;;10.21;73.19;97257.97;5072506;28;20183;-66
2021/10/18 01:36:13;;;;;;;47.83;21.77;;;;;;;10.19;72.64;97254.69;5069547;28;20573;-67
2021/10/18 01:38:39;;;;;;;57.07;24.90;;;;;;;9.68;74.05;97262.16;5048693;28;20421;-66
2021/10/18 01:41:05;;;;;;;48.50;21.80;;;;;;;9.78;74.53;97259.47;5069931;28;20186;-68
2021/10/18 01:43:30;;;;;;;53.30;23.13;;;;;;;9.82;74.82;97259.03;5072864;28;20187;-66
2021/10/18 01:45:56;;;;;;;53.63;23.33;;;;;;;9.40;75.35;97262.13;5071628;28;20687;-68
2021/10/18 01:48:22;;;;;;;55.27;24.30;;;;;;;9.47;75.16;97250.13;5071915;28;20295;-66
2021/10/18 01:50:47;;;;;;;46.27;22.60;;;;;;;9.50;75.86;97243.78;5072473;28;20239;-67
2021/10/18 01:53:13;;;;;;;72.13;24.80;;;;;;;9.46;74.89;97253.72;5072202;28;20186;-66
2021/10/18 01:55:38;;;;;;;47.40;22.67;;;;;;;9.74;74.45;97253.72;5072557;28;20206;-67
2021/10/18 01:58:04;;;;;;;51.13;22.50;;;;;;;9.48;75.24;97258.78;5071948;28;20637;-67
2021/10/18 02:00:30;;;;;;;46.37;21.60;;;;;;;9.83;73.72;97259.84;5063223;28;20174;-67
2021/10/18 02:02:55;;;;;;;57.80;23.07;;;;;;;9.54;75.03;97255.59;5071141;28;20548;-66
2021/10/18 02:05:21;;;;;;;48.00;23.03;;;;;;;9.64;74.20;97259.00;5063410;28;20244;-65
2021/10/18 02:07:47;;;;;;;49.43;22.67;;;;;;;9.72;73.67;97263.50;5066614;28;20592;-66
2021/10/18 02:10:13;;;;;;;53.60;22.23;;;;;;;9.92;72.90;97259.00;5072177;28;20187;-66
2021/10/18 02:12:40;;;;;;;52.53;22.10;;;;;;;9.96;73.10;97256.91;5071295;28;20183;-66
2021/10/18 02:15:06;;;;;;;54.40;22.73;;;;;;;9.98;72.79;97252.34;5071143;28;20436;-67
2021/10/18 02:17:32;;;;;;;48.77;21.77;;;;;;;10.08;72.57;97252.28;5066557;28;20516;-66
2021/10/18 02:19:57;;;;;;;49.00;21.50;;;;;;;9.98;72.22;97253.16;5071787;28;20427;-65
2021/10/18 02:22:23;;;;;;;46.50;21.80;;;;;;;10.09;72.31;97260.00;5063978;28;20187;-68
2021/10/18 02:24:49;;;;;;;89.27;23.10;;;;;;;9.72;72.86;97262.66;5070923;28;20232;-67
2021/10/18 02:27:14;;;;;;;44.50;19.60;;;;;;;9.89;72.90;97254.03;5065081;28;20185;-66
2021/10/18 02:29:40;;;;;;;69.83;22.90;;;;;;;9.96;72.41;97255.09;5075566;28;20269;-67
2021/10/18 02:32:06;;;;;;;51.27;22.40;;;;;;;10.05;72.29;97263.88;5071485;28;20186;-66
2021/10/18 02:34:31;;;;;;;48.27;21.00;;;;;;;10.03;72.33;97255.31;5068865;28;20224;-67
2021/10/18 02:36:57;;;;;;;48.50;22.53;;;;;;;10.18;72.20;97247.81;5075828;28;20190;-69
2021/10/18 02:39:22;;;;;;;43.43;20.57;;;;;;;9.84;72.84;97237.94;5060565;28;20183;-68
2021/10/18 02:41:48;;;;;;;55.73;22.30;;;;;;;10.15;72.29;97224.53;5075515;28;20286;-67
2021/10/18 02:44:14;;;;;;;41.60;20.43;;;;;;;10.23;71.68;97237.69;5076780;28;20175;-66
2021/10/18 02:46:39;;;;;;;44.50;20.93;;;;;;;10.32;71.73;97248.25;5076895;28;20217;-66
2021/10/18 02:49:05;;;;;;;69.47;22.70;;;;;;;10.23;71.43;97250.78;5075999;28;20273;-65
2021/10/18 02:51:30;;;;;;;53.80;22.30;;;;;;;10.31;71.67;97247.44;5072235;28;20228;-69
2021/10/18 02:53:56;;;;;;;42.20;19.60;;;;;;;10.36;71.28;97252.22;5087428;28;20244;-67
2021/10/18 02:56:21;;;;;;;41.30;19.37;;;;;;;10.35;70.94;97253.19;5087415;28;20218;-68
2021/10/18 02:58:47;;;;;;;39.30;19.60;;;;;;;10.32;71.21;97251.69;5086920;28;20246;-66
2021/10/18 03:01:13;;;;;;;43.43;20.57;;;;;;;10.36;71.20;97249.59;5078948;28;20187;-70
2021/10/18 03:03:38;;;;;;;43.87;19.43;;;;;;;10.37;70.93;97246.00;5068765;28;20182;-66
2021/10/18 03:06:04;;;;;;;38.23;18.50;;;;;;;10.36;71.20;97246.97;5075047;28;20206;-67
2021/10/18 03:08:30;;;;;;;37.87;19.33;;;;;;;10.46;70.75;97258.22;5064452;28;20182;-67
2021/10/18 03:10:55;;;;;;;42.93;18.97;;;;;;;10.45;70.56;97265.28;5066677;28;20363;-66
2021/10/18 03:13:21;;;;;;;39.27;19.20;;;;;;;10.36;71.29;97263.53;5075622;28;20178;-65
2021/10/18 03:15:46;;;;;;;36.43;18.33;;;;;;;10.28;70.73;97261.66;5075168;28;20202;-67
2021/10/18 03:18:12;;;;;;;46.97;20.50;;;;;;;10.42;70.77;97256.91;5069802;28;20657;-66
2021/10/18 03:20:38;;;;;;;38.07;19.70;;;;;;;10.48;70.20;97258.91;5057225;28;20637;-66
2021/10/18 03:23:03;;;;;;;35.33;17.90;;;;;;;10.39;70.59;97265.06;5067701;28;20640;-68
2021/10/18 03:25:34;;;;;;;39.23;19.70;;;;;;;10.49;70.37;97268.41;5074736;28;20202;-66
2021/10/18 03:28:01;;;;;;;39.83;19.20;;;;;;;10.48;70.22;97268.56;5074331;28;20539;-65
2021/10/18 03:30:26;;;;;;;38.57;19.30;;;;;;;10.40;70.32;97277.19;5074222;28;20456;-66
2021/10/18 03:32:52;;;;;;;39.57;19.17;;;;;;;10.21;71.00;97284.16;5063853;28;20939;-66
2021/10/18 03:35:17;;;;;;;37.73;20.00;;;;;;;10.36;70.38;97294.13;5072865;28;20194;-66
2021/10/18 03:37:43;;;;;;;38.67;19.93;;;;;;;10.38;70.35;97284.34;5064271;28;20196;-67
2021/10/18 03:40:11;;;;;;;45.20;21.90;;;;;;;9.55;73.45;97291.28;5073030;28;20607;-66
2021/10/18 03:42:38;;;;;;;43.33;19.77;;;;;;;9.99;71.85;97293.28;5073214;28;20195;-67
2021/10/18 03:45:07;;;;;;;41.57;20.80;;;;;;;10.23;71.02;97290.06;5066037;28;20440;-66
2021/10/18 03:47:33;;;;;;;42.17;21.10;;;;;;;10.28;71.21;97285.22;5057986;28;20429;-66
2021/10/18 03:49:59;;;;;;;44.60;22.20;;;;;;;10.35;70.63;97289.84;5063292;28;20446;-66
2021/10/18 03:52:24;;;;;;;41.60;20.40;;;;;;;10.31;70.57;97286.72;5069446;28;20194;-65
2021/10/18 03:54:50;;;;;;;39.23;20.07;;;;;;;10.37;70.92;97295.78;5069740;28;20650;-66
2021/10/18 03:57:16;;;;;;;42.90;20.70;;;;;;;10.49;70.40;97299.84;5039395;28;20183;-67
2021/10/18 03:59:42;;;;;;;45.23;21.20;;;;;;;10.45;70.15;97303.78;5053927;28;20187;-66
2021/10/18 04:02:08;;;;;;;43.73;21.07;;;;;;;10.48;69.96;97302.63;5049106;28;20419;-66
2021/10/18 04:04:34;;;;;;;44.50;21.27;;;;;;;10.60;70.15;97310.13;5048237;28;20198;-66
2021/10/18 04:06:59;;;;;;;42.73;20.27;;;;;;;10.62;69.81;97307.38;5070327;28;20210;-65
2021/10/18 04:09:25;;;;;;;43.33;21.70;;;;;;;10.65;69.82;97312.28;5053588;28;20209;-66
2021/10/18 04:11:51;;;;;;;40.80;20.30;;;;;;;10.68;70.07;97308.56;5053447;28;20183;-68
2021/10/18 04:14:16;;;;;;;46.80;20.73;;;;;;;10.65;69.59;97308.84;5053798;28;20278;-68
2021/10/18 04:16:42;;;;;;;45.90;22.50;;;;;;;10.61;69.68;97313.56;5053794;28;20180;-66
2021/10/18 04:19:07;;;;;;;41.63;20.20;;;;;;;10.70;69.78;97314.47;5053245;28;20183;-66
2021/10/18 04:21:33;;;;;;;47.63;21.53;;;;;;;10.73;69.71;97316.78;5062593;28;20222;-67
2021/10/18 04:23:59;;;;;;;48.90;21.80;;;;;;;10.59;69.38;97318.94;5061667;28;20187;-65
2021/10/18 04:26:24;;;;;;;45.70;21.33;;;;;;;10.42;70.14;97314.53;5061990;28;20203;-66
2021/10/18 04:28:50;;;;;;;47.33;21.27;;;;;;;10.57;70.06;97320.09;5053005;28;20277;-65
2021/10/18 04:31:16;;;;;;;52.43;20.70;;;;;;;10.70;69.64;97320.53;5054454;28;20236;-67
2021/10/18 04:33:41;;;;;;;41.20;20.63;;;;;;;10.66;69.42;97318.38;5064307;28;20211;-67
2021/10/18 04:36:07;;;;;;;42.30;20.50;;;;;;;10.55;69.94;97311.53;5057762;28;20214;-67
2021/10/18 04:38:33;;;;;;;46.60;22.33;;;;;;;10.67;69.56;97320.00;5051569;28;20191;-66
2021/10/18 04:40:58;;;;;;;51.70;22.20;;;;;;;10.65;69.43;97335.06;5051033;28;20432;-66
2021/10/18 04:43:24;;;;;;;42.33;21.10;;;;;;;10.70;69.66;97335.44;5053456;28;20190;-67
2021/10/18 04:45:50;;;;;;;47.80;20.60;;;;;;;10.59;69.50;97337.28;5060729;28;20624;-66
2021/10/18 04:48:15;;;;;;;40.33;20.13;;;;;;;10.47;69.43;97335.88;5048429;28;20184;-67
2021/10/18 04:50:41;;;;;;;46.57;21.53;;;;;;;10.65;69.81;97321.97;5039286;28;20237;-66
2021/10/18 04:53:06;;;;;;;38.53;20.80;;;;;;;10.55;69.84;97325.47;5044154;28;20187;-67
2021/10/18 04:55:33;;;;;;;44.13;21.73;;;;;;;10.66;69.53;97336.72;5036435;28;20581;-68
2021/10/18 04:58:04;;;;;;;39.43;20.10;;;;;;;10.57;69.64;97335.81;5051217;28;20215;-66
2021/10/18 05:00:35;;;;;;;39.40;19.13;;;;;;;10.74;69.09;97344.63;5053134;28;20800;-66
2021/10/18 05:03:01;;;;;;;40.10;19.53;;;;;;;10.62;69.36;97348.47;5035425;28;20426;-67
2021/10/18 05:05:26;;;;;;;41.33;20.60;;;;;;;10.63;69.58;97348.31;5058054;28;20461;-67
2021/10/18 05:08:03;;;;;;;41.50;20.80;;;;;;;10.79;69.07;97341.56;5073989;28;20194;-67
2021/10/18 05:10:28;;;;;;;35.27;19.97;;;;;;;10.76;68.98;97347.94;5066855;28;20185;-66
2021/10/18 05:12:54;;;;;;;35.77;20.80;;;;;;;10.65;69.13;97346.34;5063466;28;20642;-70
2021/10/18 05:15:20;;;;;;;38.90;20.30;;;;;;;10.53;69.38;97340.53;5065488;28;20202;-67
2021/10/18 05:17:46;;;;;;;37.40;20.60;;;;;;;10.30;70.10;97351.41;5054731;28;20443;-66
2021/10/18 05:20:11;;;;;;;40.07;21.00;;;;;;;10.47;69.54;97356.81;5059997;28;20713;-67
2021/10/18 05:22:37;;;;;;;44.00;21.17;;;;;;;10.24;70.42;97351.97;5072887;28;20213;-67
2021/10/18 05:25:03;;;;;;;39.07;21.43;;;;;;;10.29;70.42;97360.22;5059751;28;20207;-67
2021/10/18 05:27:28;;;;;;;39.87;21.57;;;;;;;10.43;69.82;97366.78;5062033;28;20178;-67
2021/10/18 05:29:54;;;;;;;39.27;20.80;;;;;;;10.53;69.90;97358.88;5047862;28;20271;-69
2021/10/18 05:32:19;;;;;;;36.27;20.30;;;;;;;10.74;69.31;97357.75;5056944;28;20187;-65
2021/10/18 05:34:45;;;;;;;42.57;22.60;;;;;;;10.77;69.09;97360.06;5064814;28;20206;-65
2021/10/18 05:37:11;;;;;;;42.40;23.07;;;;;;;10.67;68.82;97357.53;5054924;28;20545;-66
2021/10/18 05:39:36;;;;;;;38.80;21.77;;;;;;;10.50;68.90;97348.69;5065853;28;20193;-67
2021/10/18 05:42:02;;;;;;;38.57;20.90;;;;;;;10.72;68.57;97355.28;5052540;28;20194;-65
2021/10/18 05:44:27;;;;;;;33.97;20.47;;;;;;;10.88;68.46;97359.84;5052322;28;20183;-67
2021/10/18 05:46:53;;;;;;;36.10;20.20;;;;;;;10.99;68.35;97363.22;5052007;28;20297;-67
2021/10/18 05:49:18;;;;;;;30.77;19.37;;;;;;;10.89;67.79;97360.69;5051950;28;20262;-66
2021/10/18 05:51:44;;;;;;;35.93;20.97;;;;;;;10.86;67.87;97361.78;5052129;28;20186;-66
2021/10/18 05:54:10;;;;;;;32.40;18.80;;;;;;;10.91;68.04;97370.03;5052849;28;20186;-65
2021/10/18 05:56:35;;;;;;;32.87;18.53;;;;;;;10.93;68.00;97384.81;5041286;28;20203;-67
2021/10/18 05:59:01;;;;;;;36.60;19.97;;;;;;;10.93;67.92;97382.19;5051623;28;20290;-66
2021/10/18 06:01:26;;;;;;;38.83;21.73;;;;;;;10.79;67.82;97386.97;5051580;28;20669;-67
2021/10/18 06:03:52;;;;;;;34.37;20.60;;;;;;;10.84;67.99;97392.56;5047525;28;20727;-66
2021/10/18 06:06:18;;;;;;;42.03;21.33;;;;;;;10.79;68.41;97389.59;5050969;28;20224;-65
2021/10/18 06:08:44;;;;;;;34.53;20.27;;;;;;;10.73;68.54;97393.63;5071144;28;20179;-67
2021/10/18 06:11:10;;;;;;;31.53;18.77;;;;;;;10.69;69.03;97392.28;5063480;28;20189;-67
2021/10/18 06:13:35;;;;;;;35.67;21.60;;;;;;;10.99;68.05;97389.44;5071433;28;20188;-67
2021/10/18 06:16:01;;;;;;;37.20;21.13;;;;;;;11.06;67.57;97393.13;5071612;28;20448;-66
2021/10/18 06:18:27;;;;;;;40.80;20.77;;;;;;;11.11;67.38;97390.03;5066121;28;20185;-66
2021/10/18 06:20:54;;;;;;;35.90;19.67;;;;;;;11.02;67.34;97394.38;5071277;28;20178;-67
2021/10/18 06:23:21;;;;;;;34.73;20.70;;;;;;;10.87;67.86;97394.91;5063374;28;20632;-67
2021/10/18 06:25:47;;;;;;;32.50;18.47;;;;;;;11.02;67.66;97391.75;5071136;28;20491;-67
2021/10/18 06:28:14;;;;;;;30.57;18.40;;;;;;;11.16;67.27;97395.63;5070999;28;20420;-66
2021/10/18 06:30:39;;;;;;;38.27;20.30;;;;;;;11.10;66.95;97407.56;5071277;28;20428;-67
2021/10/18 06:33:05;;;;;;;32.27;19.97;;;;;;;11.05;66.67;97401.97;5071747;28;20432;-68
2021/10/18 06:35:35;;;;;;;33.47;19.13;;;;;;;11.06;66.90;97414.09;5070989;28;20211;-66
2021/10/18 06:38:01;;;;;;;35.57;19.83;;;;;;;10.94;67.50;97416.13;5067738;28;20281;-68
2021/10/18 06:40:27;;;;;;;30.73;19.10;;;;;;;11.30;66.45;97417.91;5053075;28;20511;-67
2021/10/18 06:42:53;;;;;;;35.77;20.00;;;;;;;11.37;66.44;97416.31;5071417;28;20247;-66
2021/10/18 06:45:19;;;;;;;40.70;22.90;;;;;;;11.47;66.28;97417.03;5070915;28;20960;-67
2021/10/18 06:47:45;;;;;;;33.17;20.57;;;;;;;11.40;66.21;97421.25;5071056;28;20209;-68
2021/10/18 06:50:11;;;;;;;29.23;18.97;;;;;;;11.30;66.18;97431.84;5071102;28;20425;-67
2021/10/18 06:52:40;;;;;;;33.43;19.97;;;;;;;11.10;67.61;97427.75;5070688;28;20860;-66
2021/10/18 06:55:08;;;;;;;36.57;20.63;;;;;;;11.31;66.72;97430.88;5071327;28;20437;-67
2021/10/18 06:57:34;;;;;;;32.17;19.60;;;;;;;11.53;65.96;97442.69;5061436;28;20455;-67
2021/10/18 07:00:00;;;;;;;33.17;18.20;;;;;;;11.42;65.97;97440.31;5050300;28;20433;-69
2021/10/18 07:02:26;;;;;;;30.50;19.20;;;;;;;11.46;65.58;97441.66;5042491;28;20430;-68
2021/10/18 07:04:53;;;;;;;32.60;19.43;;;;;;;11.59;65.59;97445.69;5024383;28;20223;-66
2021/10/18 07:07:19;;;;;;;28.47;18.30;;;;;;;11.22;66.03;97450.97;5061201;28;21004;-68
2021/10/18 07:09:45;;;;;;;29.67;19.30;;;;;;;11.44;65.49;97440.16;5059790;28;20806;-69
2021/10/18 07:12:11;;;;;;;30.47;18.00;;;;;;;11.42;65.74;97445.56;5069756;28;20431;-67
2021/10/18 07:14:37;;;;;;;29.10;18.27;;;;;;;11.16;66.07;97456.81;5070397;28;21298;-66
2021/10/18 07:17:03;;;;;;;30.53;18.30;;;;;;;11.25;65.97;97454.25;5063987;28;20430;-68
2021/10/18 07:19:28;;;;;;;28.00;18.80;;;;;;;11.53;65.10;97452.34;5067579;28;20265;-68
2021/10/18 07:21:54;;;;;;;26.10;16.93;;;;;;;11.70;65.08;97453.31;5064461;28;20912;-68
2021/10/18 07:24:20;;;;;;;29.20;18.03;;;;;;;11.49;64.86;97457.09;5074353;28;20699;-68
2021/10/18 07:26:50;;;;;;;32.17;19.57;;;;;;;11.65;64.92;97455.56;5065997;28;20232;-67
2021/10/18 07:29:21;;;;;;;28.53;17.80;;;;;;;11.63;65.53;97457.53;5058191;28;20450;-66
2021/10/18 07:31:47;;;;;;;31.60;18.40;;;;;;;11.67;64.51;97453.63;5073212;28;20431;-67
2021/10/18 07:34:14;;;;;;;32.30;19.20;;;;;;;11.79;64.35;97462.06;5051639;28;20425;-68
2021/10/18 07:36:50;;;;;;;31.23;18.63;;;;;;;11.91;64.22;97462.63;5064338;28;20440;-68
2021/10/18 07:39:17;;;;;;;27.90;18.50;;;;;;;11.51;65.06;97462.19;5054690;28;20429;-67
2021/10/18 07:41:43;;;;;;;30.60;18.20;;;;;;;11.61;65.08;97465.56;5061511;28;20428;-69
2021/10/18 07:44:09;;;;;;;30.87;18.70;;;;;;;11.62;64.95;97471.63;5070040;28;20431;-67
2021/10/18 07:46:34;;;;;;;32.60;20.60;;;;;;;11.63;65.15;97466.25;5068395;28;20540;-66
2021/10/18 07:49:00;;;;;;;31.73;19.03;;;;;;;11.59;65.61;97466.69;5072649;28;20754;-67
2021/10/18 07:51:27;;;;;;;35.33;20.73;;;;;;;11.35;66.32;97466.34;5073257;28;20234;-67
2021/10/18 07:53:52;;;;;;;33.10;18.30;;;;;;;11.45;66.18;97470.66;5073451;28;20940;-67
2021/10/18 07:56:18;;;;;;;35.83;21.33;;;;;;;11.41;65.64;97469.31;5073376;28;20433;-68
2021/10/18 07:58:44;;;;;;;34.40;20.00;;;;;;;11.31;66.49;97472.03;5064748;28;20710;-67
2021/10/18 08:01:13;;;;;;;32.93;19.30;;;;;;;11.70;65.57;97471.69;5073520;28;20185;-67
2021/10/18 08:03:42;;;;;;;29.50;18.43;;;;;;;11.65;65.45;97476.56;5075250;28;20718;-66
2021/10/18 08:06:08;;;;;;;29.57;18.10;;;;;;;11.64;65.34;97474.94;5067184;28;20480;-67
2021/10/18 08:08:42;;;;;;;33.63;19.80;;;;;;;11.65;65.34;97479.19;5072228;28;20428;-69
2021/10/18 08:11:08;;;;;;;32.83;19.83;;;;;;;11.84;64.85;97489.50;5062088;28;20182;-67
2021/10/18 08:13:34;;;;;;;29.00;18.00;;;;;;;11.83;64.75;97485.25;5073284;28;20501;-71
2021/10/18 08:15:59;;;;;;;30.20;18.63;;;;;;;11.71;65.11;97483.84;5071583;28;20198;-67
2021/10/18 08:18:25;;;;;;;32.80;19.13;;;;;;;11.95;64.43;97482.38;5075522;28;20270;-67
2021/10/18 08:20:51;;;;;;;32.90;18.30;;;;;;;12.13;64.44;97479.72;5056185;28;20656;-67
2021/10/18 08:23:17;;;;;;;29.77;17.87;;;;;;;12.23;63.98;97484.84;5065231;28;20413;-68
2021/10/18 08:25:43;;;;;;;28.60;18.13;;;;;;;12.04;64.26;97480.63;5071287;28;20237;-69
2021/10/18 08:28:09;;;;;;;26.03;17.60;;;;;;;11.79;64.43;97481.28;5071159;28;20350;-67
2021/10/18 08:30:35;;;;;;;28.70;18.57;;;;;;;11.47;65.24;97480.03;5072797;28;20182;-69
2021/10/18 08:33:00;;;;;;;31.50;18.00;;;;;;;11.44;65.85;97485.59;5072586;28;20640;-66
2021/10/18 08:35:26;;;;;;;29.30;18.23;;;;;;;11.79;64.97;97489.16;5074632;28;20285;-69
2021/10/18 08:40:42;;;;;;;32.00;18.50;;;;;;;11.89;64.57;97485.59;5072247;28;20830;-66
2021/10/18 08:45:40;;;;;;;29.47;18.40;;;;;;;11.80;64.99;97488.19;5072030;28;20452;-68
2021/10/18 08:48:08;;;;;;;28.00;18.40;;;;;;;11.87;64.61;97490.19;5069906;28;20468;-69
2021/10/18 08:50:35;;;;;;;35.23;19.27;;;;;;;11.98;64.45;97495.22;5065726;28;20587;-68
2021/10/18 08:53:01;;;;;;;31.13;18.60;;;;;;;12.14;64.57;97487.44;5070601;28;20795;-68
2021/10/18 08:55:27;;;;;;;27.77;18.37;;;;;;;12.19;63.87;97494.03;5053762;28;20946;-68
2021/10/18 08:57:53;;;;;;;26.90;17.93;;;;;;;12.41;63.44;97498.75;5059855;28;20518;-68
2021/10/18 09:00:51;;;;;;;28.83;17.23;;;;;;;12.62;63.17;97499.34;5071581;28;20184;-68
2021/10/18 09:03:22;;;;;;;26.47;17.83;;;;;;;12.53;62.76;97501.09;5056356;28;20202;-68
2021/10/18 09:05:48;;;;;;;32.50;18.50;;;;;;;12.63;62.49;97507.06;5065922;28;20488;-66
2021/10/18 09:08:38;;;;;;;26.97;16.83;;;;;;;12.31;63.25;97505.94;5055096;28;20482;-68
2021/10/18 09:11:07;;;;;;;28.30;18.20;;;;;;;12.63;62.42;97493.91;5072272;28;20465;-67
2021/10/18 09:13:34;;;;;;;31.17;17.37;;;;;;;12.57;62.36;97502.44;5071954;28;20857;-68
2021/10/18 09:16:01;;;;;;;25.63;17.60;;;;;;;12.59;61.90;97503.13;5071651;28;20836;-65
2021/10/18 09:18:26;;;;;;;29.13;18.47;;;;;;;12.68;61.87;97506.59;5066373;28;20428;-67
2021/10/18 09:20:52;;;;;;;27.23;17.83;;;;;;;12.87;61.62;97506.34;5070924;28;20432;-67
2021/10/18 09:23:28;;;;;;;24.53;16.80;;;;;;;13.05;61.19;97503.59;5064746;28;20189;-67
2021/10/18 09:26:16;;;;;;;27.97;18.60;;;;;;;12.63;61.57;97501.00;5071480;28;20205;-68
2021/10/18 09:28:41;;;;;;;27.97;18.80;;;;;;;12.70;61.45;97505.47;5071779;28;20425;-69
2021/10/18 09:31:17;;;;;;;30.07;18.63;;;;;;;12.90;61.12;97502.56;5072027;28;20431;-64
2021/10/18 09:33:47;;;;;;;30.50;18.90;;;;;;;13.04;60.78;97507.22;5071720;28;20416;-66
2021/10/18 09:36:17;;;;;;;31.73;18.57;;;;;;;13.13;60.59;97501.97;5054568;28;20448;-67
2021/10/18 09:38:43;;;;;;;35.80;18.37;;;;;;;13.05;61.07;97505.38;5069993;28;20421;-67
2021/10/18 09:41:09;;;;;;;33.23;17.70;;;;;;;12.74;61.08;97504.16;5071340;28;20451;-69
2021/10/18 09:43:38;;;;;;;32.17;19.50;;;;;;;13.08;60.67;97488.47;5070582;28;20606;-69
2021/10/18 10:53:16;;;;;;;26.50;15.77;;;;;;;13.92;57.12;97478.66;5074405;28;20453;-68
2021/10/18 10:55:42;;;;;;;27.60;16.67;;;;;;;14.64;55.85;97481.41;5072193;28;20539;-68
2021/10/18 10:58:33;;;;;;;23.23;16.00;;;;;;;15.01;54.49;97474.66;5073589;28;20459;-68
2021/10/18 11:00:59;;;;;;;22.50;15.60;;;;;;;14.88;55.20;97483.97;5073665;28;20182;-68
2021/10/18 11:03:31;;;;;;;25.80;17.33;;;;;;;15.03;54.43;97483.25;5074630;28;20453;-68
2021/10/18 11:06:04;;;;;;;23.43;16.00;;;;;;;15.00;54.82;97478.31;5068709;28;20539;-68
2021/10/18 11:08:43;;;;;;;24.60;15.70;;;;;;;15.22;54.29;97476.69;5062410;28;20435;-67
2021/10/18 11:11:18;;;;;;;23.27;14.40;;;;;;;15.41;52.94;97478.03;5071745;28;20416;-67
2021/10/18 11:13:49;;;;;;;20.47;13.77;;;;;;;15.80;52.36;97470.97;5073522;28;20515;-68
2021/10/18 11:16:19;;;;;;;24.93;14.77;;;;;;;15.88;51.94;97464.81;5072583;28;20864;-69
2021/10/18 11:18:57;;;;;;;22.23;14.23;;;;;;;16.11;51.88;97475.31;5069845;28;20472;-66
2021/10/18 11:21:26;;;;;;;19.83;13.70;;;;;;;16.24;51.30;97472.06;5046614;28;20421;-67
2021/10/18 11:23:58;;;;;;;21.63;14.50;;;;;;;16.09;51.03;97462.28;5062921;28;20938;-69
2021/10/18 11:26:25;;;;;;;21.37;14.23;;;;;;;16.17;51.37;97463.19;5074393;28;20460;-68
2021/10/18 11:28:55;;;;;;;22.60;14.73;;;;;;;16.40;50.84;97466.56;5072398;28;20467;-67
2021/10/18 11:31:26;;;;;;;22.50;14.53;;;;;;;16.58;50.63;97455.59;5074034;28;20424;-68
2021/10/18 11:34:08;;;;;;;21.13;13.83;;;;;;;17.01;49.96;97454.09;5075277;28;20857;-68
2021/10/18 11:36:40;;;;;;;20.17;14.90;;;;;;;16.34;50.77;97456.75;5083181;28;20448;-69
2021/10/18 11:39:07;;;;;;;21.77;14.60;;;;;;;15.64;52.63;97448.13;5085764;28;20471;-66
2021/10/18 11:41:56;;;;;;;17.03;12.77;;;;;;;15.79;52.46;97451.63;5082578;28;20417;-68
2021/10/18 11:44:44;;;;;;;28.47;13.57;;;;;;;16.72;51.25;97447.81;5082156;28;20432;-66
2021/10/18 11:47:31;;;;;;;21.67;13.40;;;;;;;17.12;49.25;97445.66;5073559;28;20468;-67
2021/10/18 11:50:19;;;;;;;22.47;14.47;;;;;;;17.32;48.92;97445.84;5066345;28;20430;-68
2021/10/18 11:52:47;;;;;;;20.53;12.90;;;;;;;17.94;47.16;97442.69;5064181;28;20413;-68
2021/10/18 11:55:19;;;;;;;20.10;12.63;;;;;;;17.76;47.74;97441.31;5073202;28;20440;-67
2021/10/18 11:57:47;;;;;;;20.13;12.23;;;;;;;18.24;45.66;97438.00;5072983;28;20611;-67
2021/10/18 12:00:18;;;;;;;17.70;11.90;;;;;;;18.25;45.14;97431.69;5072980;28;20524;-70
2021/10/18 12:02:45;;;;;;;19.10;12.60;;;;;;;18.86;44.76;97429.25;5071863;28;20452;-68
2021/10/18 12:05:13;;;;;;;22.97;12.77;;;;;;;17.96;46.28;97424.72;5072758;28;20444;-67
2021/10/18 12:07:41;;;;;;;16.83;11.60;;;;;;;18.44;45.13;97416.03;5067135;28;20425;-67
2021/10/18 12:10:17;;;;;;;20.03;11.50;;;;;;;18.55;45.03;97412.00;5072070;28;20486;-66
2021/10/18 12:13:04;;;;;;;17.07;12.33;;;;;;;18.38;45.96;97400.94;5072462;28;20831;-70
2021/10/18 12:15:30;;;;;;;19.23;13.77;;;;;;;18.15;46.22;97407.31;5060237;28;20585;-67
2021/10/18 12:17:57;;;;;;;21.47;12.77;;;;;;;18.44;45.93;97400.13;5066849;28;20447;-67
2021/10/18 12:20:23;;;;;;;19.17;13.43;;;;;;;18.46;45.67;97408.72;5071366;28;20421;-66
2021/10/18 12:23:05;;;;;;;16.47;12.80;;;;;;;19.08;43.73;97398.09;5065550;28;20424;-68
2021/10/18 12:25:34;;;;;;;18.00;11.57;;;;;;;19.29;43.70;97396.25;5072690;28;20281;-67
2021/10/18 12:28:27;;;;;;;20.00;12.67;;;;;;;19.52;42.71;97400.38;5070489;28;20420;-69
2021/10/18 12:30:53;;;;;;;17.97;12.50;;;;;;;19.64;43.04;97385.44;5062681;28;20414;-67
2021/10/18 12:33:18;;;;;;;19.50;12.97;;;;;;;19.89;42.29;97387.47;5050205;28;21013;-70